CheckWX is a tool to help pilots better visualize weather data.  It is not intended as a substitute for an official pre-flight weather briefing.

23:35:38 UTC

KEGV METAR
Eagle River Union Airport
Eagle River, Wisconsin, USA
Current

21 mins ago

KEGV 182315Z AUTO 16009G15KT 10SM CLR 10/03 A2979 RMK AO2 T00990029
Observed
Oct-18 @ 23:15 UTC
Wind
  • 160° at 9 KTS
  • Gusting to 15 KTS
Visibility
10 SM
Flight Rules
VFR
Cloud Levels
  • Clear skies
Temperature
10°C / 50°F
Dewpoint
C / 37°F
Humidity
62%
Altimeter
29.79" Hg
Pressure
1008.82 hPa
Previous

41 mins ago

KEGV 182255Z AUTO 14005KT 10SM CLR 10/03 A2979 RMK AO2 T01030030
Observed
Oct-18 @ 22:55 UTC
Wind
  • 140° at 5 KTS
Visibility
10 SM
Flight Rules
VFR
Cloud Levels
  • Clear skies
Temperature
10°C / 50°F
Dewpoint
C / 37°F
Humidity
62%
Altimeter
29.79" Hg
Pressure
1008.82 hPa
Previous

1 hour ago

KEGV 182235Z AUTO 15005KT 10SM CLR 11/03 A2979 RMK AO2 T01100030
Observed
Oct-18 @ 22:35 UTC
Wind
  • 150° at 5 KTS
Visibility
10 SM
Flight Rules
VFR
Cloud Levels
  • Clear skies
Temperature
11°C / 52°F
Dewpoint
C / 37°F
Humidity
58%
Altimeter
29.79" Hg
Pressure
1008.82 hPa